sensor_id;sensor_type;location;lat;lon;timestamp;pressure;altitude;pressure_sealevel;temperature;humidity
68807;BME280;55800;54.272;18.558;2023-02-14T00:00:11;102613.06;;;4.45;78.51
68807;BME280;55800;54.272;18.558;2023-02-14T00:03:03;102607.72;;;4.43;78.60
68807;BME280;55800;54.272;18.558;2023-02-14T00:05:33;102606.81;;;4.41;78.56
68807;BME280;55800;54.272;18.558;2023-02-14T00:08:02;102612.19;;;4.46;78.10
68807;BME280;55800;54.272;18.558;2023-02-14T00:10:32;102618.31;;;4.43;78.50
68807;BME280;55800;54.272;18.558;2023-02-14T00:13:01;102626.31;;;4.46;78.50
68807;BME280;55800;54.272;18.558;2023-02-14T00:15:30;102621.94;;;4.48;78.50
68807;BME280;55800;54.272;18.558;2023-02-14T00:18:00;102624.56;;;4.47;78.26
68807;BME280;55800;54.272;18.558;2023-02-14T00:20:31;102622.84;;;4.49;78.30
68807;BME280;55800;54.272;18.558;2023-02-14T00:23:01;102628.16;;;4.50;78.40
68807;BME280;55800;54.272;18.558;2023-02-14T00:25:32;102621.09;;;4.49;78.75
68807;BME280;55800;54.272;18.558;2023-02-14T00:28:01;102629.88;;;4.47;78.90
68807;BME280;55800;54.272;18.558;2023-02-14T00:30:30;102629.91;;;4.50;78.42
68807;BME280;55800;54.272;18.558;2023-02-14T00:33:01;102623.78;;;4.54;78.50
68807;BME280;55800;54.272;18.558;2023-02-14T00:35:32;102629.94;;;4.51;79.13
68807;BME280;55800;54.272;18.558;2023-02-14T00:38:05;102635.25;;;4.53;78.73
68807;BME280;55800;54.272;18.558;2023-02-14T00:40:34;102633.50;;;4.53;78.74
68807;BME280;55800;54.272;18.558;2023-02-14T00:43:03;102627.31;;;4.53;78.80
68807;BME280;55800;54.272;18.558;2023-02-14T00:45:33;102635.25;;;4.54;78.97
68807;BME280;55800;54.272;18.558;2023-02-14T00:48:03;102630.88;;;4.56;78.56
68807;BME280;55800;54.272;18.558;2023-02-14T00:50:33;102633.50;;;4.53;79.19
68807;BME280;55800;54.272;18.558;2023-02-14T00:53:03;102637.06;;;4.57;78.44
68807;BME280;55800;54.272;18.558;2023-02-14T00:55:32;102640.63;;;4.57;78.62
68807;BME280;55800;54.272;18.558;2023-02-14T00:58:02;102638.88;;;4.58;78.45
68807;BME280;55800;54.272;18.558;2023-02-14T01:00:31;102640.56;;;4.54;78.74
68807;BME280;55800;54.272;18.558;2023-02-14T01:03:01;102643.28;;;4.57;78.82
68807;BME280;55800;54.272;18.558;2023-02-14T01:05:30;102641.38;;;4.50;78.82
68807;BME280;55800;54.272;18.558;2023-02-14T01:08:01;102645.88;;;4.54;78.83
68807;BME280;55800;54.272;18.558;2023-02-14T01:10:30;102640.56;;;4.54;78.74
68807;BME280;55800;54.272;18.558;2023-02-14T01:12:59;102655.63;;;4.57;78.94
68807;BME280;55800;54.272;18.558;2023-02-14T01:15:29;102668.94;;;4.61;78.84
68807;BME280;55800;54.272;18.558;2023-02-14T01:17:59;102666.38;;;4.67;78.62
68807;BME280;55800;54.272;18.558;2023-02-14T01:20:29;102667.25;;;4.66;78.72
68807;BME280;55800;54.272;18.558;2023-02-14T01:22:59;102661.91;;;4.65;79.04
68807;BME280;55800;54.272;18.558;2023-02-14T01:25:29;102663.59;;;4.58;79.18
68807;BME280;55800;54.272;18.558;2023-02-14T01:27:59;102665.47;;;4.65;79.25
68807;BME280;55800;54.272;18.558;2023-02-14T01:30:28;102669.03;;;4.67;79.04
68807;BME280;55800;54.272;18.558;2023-02-14T01:32:58;102677.00;;;4.69;79.04
68807;BME280;55800;54.272;18.558;2023-02-14T01:35:27;102677.00;;;4.69;78.74
68807;BME280;55800;54.272;18.558;2023-02-14T01:37:57;102668.19;;;4.71;78.98
68807;BME280;55800;54.272;18.558;2023-02-14T01:40:28;102670.84;;;4.71;79.01
68807;BME280;55800;54.272;18.558;2023-02-14T01:42:58;102667.41;;;4.77;78.59
68807;BME280;55800;54.272;18.558;2023-02-14T01:45:27;102663.88;;;4.80;78.71
68807;BME280;55800;54.272;18.558;2023-02-14T01:47:57;102658.59;;;4.78;78.72
68807;BME280;55800;54.272;18.558;2023-02-14T01:50:30;102673.63;;;4.79;78.85
68807;BME280;55800;54.272;18.558;2023-02-14T01:53:07;102671.84;;;4.80;78.75
68807;BME280;55800;54.272;18.558;2023-02-14T01:55:43;102664.81;;;4.82;78.84
68807;BME280;55800;54.272;18.558;2023-02-14T01:58:16;102670.94;;;4.78;78.92
68807;BME280;55800;54.272;18.558;2023-02-14T02:00:47;102670.09;;;4.79;78.94
68807;BME280;55800;54.272;18.558;2023-02-14T02:03:30;102664.75;;;4.77;78.91
68807;BME280;55800;54.272;18.558;2023-02-14T02:06:08;102666.47;;;4.73;78.96
68807;BME280;55800;54.272;18.558;2023-02-14T02:08:42;102661.22;;;4.77;78.91
68807;BME280;55800;54.272;18.558;2023-02-14T02:11:17;102662.16;;;4.82;78.67
68807;BME280;55800;54.272;18.558;2023-02-14T02:13:47;102665.63;;;4.78;78.52
68807;BME280;55800;54.272;18.558;2023-02-14T02:16:41;102660.34;;;4.78;78.09
68807;BME280;55800;54.272;18.558;2023-02-14T02:19:37;102662.06;;;4.75;78.87
68807;BME280;55800;54.272;18.558;2023-02-14T02:22:44;102670.94;;;4.78;78.59
68807;BME280;55800;54.272;18.558;2023-02-14T02:25:46;102669.94;;;4.71;78.75
68807;BME280;55800;54.272;18.558;2023-02-14T02:28:43;102678.03;;;4.79;78.28
68807;BME280;55800;54.272;18.558;2023-02-14T02:31:46;102678.03;;;4.79;78.55
68807;BME280;55800;54.272;18.558;2023-02-14T02:37:41;102669.19;;;4.80;78.51
68807;BME280;55800;54.272;18.558;2023-02-14T02:40:32;102676.31;;;4.84;78.15
68807;BME280;55800;54.272;18.558;2023-02-14T02:43:14;102675.38;;;4.79;78.18
68807;BME280;55800;54.272;18.558;2023-02-14T02:45:50;102677.97;;;4.75;78.10
68807;BME280;55800;54.272;18.558;2023-02-14T02:48:44;102678.88;;;4.76;78.27
68807;BME280;55800;54.272;18.558;2023-02-14T02:51:25;102673.56;;;4.76;78.42
68807;BME280;55800;54.272;18.558;2023-02-14T02:54:18;102682.34;;;4.70;78.30
68807;BME280;55800;54.272;18.558;2023-02-14T02:56:51;102683.28;;;4.75;78.42
68807;BME280;55800;54.272;18.558;2023-02-14T02:59:25;102685.97;;;4.77;78.10
68807;BME280;55800;54.272;18.558;2023-02-14T03:02:00;102679.78;;;4.80;78.21
68807;BME280;55800;54.272;18.558;2023-02-14T03:04:34;102674.50;;;4.80;77.84
68807;BME280;55800;54.272;18.558;2023-02-14T03:07:30;102671.84;;;4.78;78.28
68807;BME280;55800;54.272;18.558;2023-02-14T03:10:13;102667.38;;;4.75;78.11
68807;BME280;55800;54.272;18.558;2023-02-14T03:13:02;102676.16;;;4.71;77.95
68807;BME280;55800;54.272;18.558;2023-02-14T03:15:48;102690.28;;;4.70;78.33
68807;BME280;55800;54.272;18.558;2023-02-14T03:21:43;102688.50;;;4.69;78.04
68807;BME280;55800;54.272;18.558;2023-02-14T03:24:22;102683.19;;;4.68;78.31
68807;BME280;55800;54.272;18.558;2023-02-14T03:27:01;102691.06;;;4.65;77.91
68807;BME280;55800;54.272;18.558;2023-02-14T03:29:42;102690.03;;;4.55;78.34
68807;BME280;55800;54.272;18.558;2023-02-14T03:32:16;102695.38;;;4.58;78.49
68807;BME280;55800;54.272;18.558;2023-02-14T03:34:53;102695.38;;;4.58;78.71
68807;BME280;55800;54.272;18.558;2023-02-14T03:37:30;102689.16;;;4.56;78.67
68807;BME280;55800;54.272;18.558;2023-02-14T03:40:07;102695.34;;;4.55;78.33
68807;BME280;55800;54.272;18.558;2023-02-14T03:42:42;102699.59;;;4.46;78.23
68807;BME280;55800;54.272;18.558;2023-02-14T03:45:21;102702.31;;;4.50;78.82
68807;BME280;55800;54.272;18.558;2023-02-14T03:47:56;102700.72;;;4.61;77.92
68807;BME280;55800;54.272;18.558;2023-02-14T03:50:29;102698.88;;;4.56;78.16
68807;BME280;55800;54.272;18.558;2023-02-14T03:53:00;102703.38;;;4.60;78.15
68807;BME280;55800;54.272;18.558;2023-02-14T03:55:33;102711.19;;;4.52;78.25
68807;BME280;55800;54.272;18.558;2023-02-14T03:58:09;102712.13;;;4.56;78.27
68807;BME280;55800;54.272;18.558;2023-02-14T04:00:44;102722.66;;;4.51;78.39
68807;BME280;55800;54.272;18.558;2023-02-14T04:03:16;102726.31;;;4.59;78.50
68807;BME280;55800;54.272;18.558;2023-02-14T04:05:48;102713.88;;;4.55;78.44
68807;BME280;55800;54.272;18.558;2023-02-14T04:08:24;102710.41;;;4.59;78.37
68807;BME280;55800;54.272;18.558;2023-02-14T04:10:56;102719.28;;;4.63;78.07
68807;BME280;55800;54.272;18.558;2023-02-14T04:13:28;102717.56;;;4.65;78.44
68807;BME280;55800;54.272;18.558;2023-02-14T04:15:58;102715.88;;;4.70;78.05
68807;BME280;55800;54.272;18.558;2023-02-14T04:18:27;102709.69;;;4.69;78.10
68807;BME280;55800;54.272;18.558;2023-02-14T04:21:14;102708.84;;;4.70;78.02
68807;BME280;55800;54.272;18.558;2023-02-14T04:23:43;102710.59;;;4.71;77.84
68807;BME280;55800;54.272;18.558;2023-02-14T04:26:13;102716.72;;;4.69;78.29
68807;BME280;55800;54.272;18.558;2023-02-14T04:28:43;102705.31;;;4.73;78.03
68807;BME280;55800;54.272;18.558;2023-02-14T04:31:12;102692.88;;;4.67;78.24
68807;BME280;55800;54.272;18.558;2023-02-14T04:33:42;102700.81;;;4.67;78.30
68807;BME280;55800;54.272;18.558;2023-02-14T04:36:13;102705.22;;;4.65;77.98
68807;BME280;55800;54.272;18.558;2023-02-14T04:38:42;102693.75;;;4.66;78.11
68807;BME280;55800;54.272;18.558;2023-02-14T04:41:11;102688.47;;;4.66;78.12
68807;BME280;55800;54.272;18.558;2023-02-14T04:43:42;102695.59;;;4.70;77.87
68807;BME280;55800;54.272;18.558;2023-02-14T04:46:11;102691.03;;;4.62;78.30
68807;BME280;55800;54.272;18.558;2023-02-14T04:48:40;102699.00;;;4.63;78.43
68807;BME280;55800;54.272;18.558;2023-02-14T04:51:10;102698.09;;;4.63;78.27
68807;BME280;55800;54.272;18.558;2023-02-14T04:53:39;102684.88;;;4.64;78.04
68807;BME280;55800;54.272;18.558;2023-02-14T04:56:10;102699.00;;;4.65;78.05
68807;BME280;55800;54.272;18.558;2023-02-14T04:58:40;102705.19;;;4.64;78.13
68807;BME280;55800;54.272;18.558;2023-02-14T05:01:10;102690.13;;;4.61;78.14
68807;BME280;55800;54.272;18.558;2023-02-14T05:03:40;102694.47;;;4.56;78.02
68807;BME280;55800;54.272;18.558;2023-02-14T05:06:09;102700.66;;;4.58;78.01
68807;BME280;55800;54.272;18.558;2023-02-14T05:08:38;102705.06;;;4.56;77.93
68807;BME280;55800;54.272;18.558;2023-02-14T05:11:08;102698.84;;;4.54;78.24
68807;BME280;55800;54.272;18.558;2023-02-14T05:13:37;102706.84;;;4.56;78.16
68807;BME280;55800;54.272;18.558;2023-02-14T05:16:07;102703.25;;;4.54;78.24
68807;BME280;55800;54.272;18.558;2023-02-14T05:18:37;102709.38;;;4.50;78.53
68807;BME280;55800;54.272;18.558;2023-02-14T05:21:07;102713.66;;;4.43;78.53
68807;BME280;55800;54.272;18.558;2023-02-14T05:23:36;102698.66;;;4.42;78.63
68807;BME280;55800;54.272;18.558;2023-02-14T05:26:06;102703.97;;;4.42;78.67
68807;BME280;55800;54.272;18.558;2023-02-14T05:28:36;102716.28;;;4.40;78.84
68807;BME280;55800;54.272;18.558;2023-02-14T05:31:08;102717.13;;;4.39;79.07
68807;BME280;55800;54.272;18.558;2023-02-14T05:33:39;102715.38;;;4.38;78.73
68807;BME280;55800;54.272;18.558;2023-02-14T05:36:10;102717.94;;;4.35;78.86
68807;BME280;55800;54.272;18.558;2023-02-14T05:38:39;102711.75;;;4.33;78.82
68807;BME280;55800;54.272;18.558;2023-02-14T05:41:09;102712.56;;;4.31;79.01
68807;BME280;55800;54.272;18.558;2023-02-14T05:43:38;102707.22;;;4.26;79.13
68807;BME280;55800;54.272;18.558;2023-02-14T05:46:07;102716.00;;;4.24;78.95
68807;BME280;55800;54.272;18.558;2023-02-14T05:48:38;102713.34;;;4.24;79.03
68807;BME280;55800;54.272;18.558;2023-02-14T05:51:09;102728.28;;;4.20;79.19
68807;BME280;55800;54.272;18.558;2023-02-14T05:53:38;102723.84;;;4.18;79.09
68807;BME280;55800;54.272;18.558;2023-02-14T05:56:08;102734.38;;;4.15;79.07
68807;BME280;55800;54.272;18.558;2023-02-14T05:58:37;102729.06;;;4.15;79.21
68807;BME280;55800;54.272;18.558;2023-02-14T06:01:07;102728.13;;;4.11;79.24
68807;BME280;55800;54.272;18.558;2023-02-14T06:03:37;102731.69;;;4.13;78.86
68807;BME280;55800;54.272;18.558;2023-02-14T06:06:07;102748.41;;;4.09;79.30
68807;BME280;55800;54.272;18.558;2023-02-14T06:08:36;102756.25;;;4.06;79.45
68807;BME280;55800;54.272;18.558;2023-02-14T06:11:06;102752.59;;;4.00;79.72
68807;BME280;55800;54.272;18.558;2023-02-14T06:13:35;102752.59;;;3.98;79.62
68807;BME280;55800;54.272;18.558;2023-02-14T06:16:05;102737.56;;;3.97;79.76
68807;BME280;55800;54.272;18.558;2023-02-14T06:18:34;102756.09;;;3.97;79.58
68807;BME280;55800;54.272;18.558;2023-02-14T06:21:05;102755.16;;;3.95;79.56
68807;BME280;55800;54.272;18.558;2023-02-14T06:23:34;102764.91;;;3.96;79.81
68807;BME280;55800;54.272;18.558;2023-02-14T06:26:04;102761.34;;;3.94;80.03
68807;BME280;55800;54.272;18.558;2023-02-14T06:28:33;102761.38;;;3.97;79.74
68807;BME280;55800;54.272;18.558;2023-02-14T06:31:02;102766.63;;;3.94;79.79
68807;BME280;55800;54.272;18.558;2023-02-14T06:33:32;102776.34;;;3.95;79.75
68807;BME280;55800;54.272;18.558;2023-02-14T06:36:01;102778.16;;;3.97;79.79
68807;BME280;55800;54.272;18.558;2023-02-14T06:38:32;102766.75;;;4.02;80.16
68807;BME280;55800;54.272;18.558;2023-02-14T06:41:02;102772.88;;;3.99;80.17
68807;BME280;55800;54.272;18.558;2023-02-14T06:43:33;102776.34;;;3.95;80.33
68807;BME280;55800;54.272;18.558;2023-02-14T06:46:02;102781.69;;;3.97;80.36
68807;BME280;55800;54.272;18.558;2023-02-14T06:48:32;102780.81;;;3.99;80.43
68807;BME280;55800;54.272;18.558;2023-02-14T06:51:01;102783.56;;;4.04;80.07
68807;BME280;55800;54.272;18.558;2023-02-14T06:53:32;102768.50;;;4.01;80.10
68807;BME280;55800;54.272;18.558;2023-02-14T06:56:02;102773.00;;;4.05;80.04
68807;BME280;55800;54.272;18.558;2023-02-14T06:58:31;102789.81;;;4.07;80.07
68807;BME280;55800;54.272;18.558;2023-02-14T07:01:01;102796.00;;;4.08;80.22
68807;BME280;55800;54.272;18.558;2023-02-14T07:03:31;102781.84;;;4.06;80.23
68807;BME280;55800;54.272;18.558;2023-02-14T07:06:00;102773.94;;;4.07;80.31
68807;BME280;55800;54.272;18.558;2023-02-14T07:08:31;102788.97;;;4.10;80.33
68807;BME280;55800;54.272;18.558;2023-02-14T07:11:01;102819.97;;;4.15;79.91
68807;BME280;55800;54.272;18.558;2023-02-14T07:13:31;102811.22;;;4.19;79.96
68807;BME280;55800;54.272;18.558;2023-02-14T07:16:00;102796.16;;;4.17;80.44
68807;BME280;55800;54.272;18.558;2023-02-14T07:18:29;102789.97;;;4.16;80.29
68807;BME280;55800;54.272;18.558;2023-02-14T07:20:59;102796.16;;;4.15;80.27
68807;BME280;55800;54.272;18.558;2023-02-14T07:23:28;102797.97;;;4.18;80.44
68807;BME280;55800;54.272;18.558;2023-02-14T07:25:59;102805.03;;;4.19;80.23
68807;BME280;55800;54.272;18.558;2023-02-14T07:28:29;102801.53;;;4.20;80.08
68807;BME280;55800;54.272;18.558;2023-02-14T07:30:59;102794.56;;;4.25;80.06
68807;BME280;55800;54.272;18.558;2023-02-14T07:33:29;102801.66;;;4.27;79.91
68807;BME280;55800;54.272;18.558;2023-02-14T07:36:02;102813.13;;;4.26;79.96
68807;BME280;55800;54.272;18.558;2023-02-14T07:38:31;102819.34;;;4.28;79.91
68807;BME280;55800;54.272;18.558;2023-02-14T07:41:03;102823.78;;;4.31;79.88
68807;BME280;55800;54.272;18.558;2023-02-14T07:43:32;102809.78;;;4.36;79.71
68807;BME280;55800;54.272;18.558;2023-02-14T07:46:02;102804.53;;;4.39;79.74
68807;BME280;55800;54.272;18.558;2023-02-14T07:48:31;102817.84;;;4.42;79.79
68807;BME280;55800;54.272;18.558;2023-02-14T07:51:02;102820.59;;;4.48;79.50
68807;BME280;55800;54.272;18.558;2023-02-14T07:53:31;102822.41;;;4.49;79.65
68807;BME280;55800;54.272;18.558;2023-02-14T07:56:01;102819.84;;;4.55;79.52
68807;BME280;55800;54.272;18.558;2023-02-14T07:58:31;102811.91;;;4.55;79.73
68807;BME280;55800;54.272;18.558;2023-02-14T08:01:00;102823.44;;;4.59;79.42
68807;BME280;55800;54.272;18.558;2023-02-14T08:03:29;102821.69;;;4.59;79.34
68807;BME280;55800;54.272;18.558;2023-02-14T08:05:59;102821.72;;;4.62;79.36
68807;BME280;55800;54.272;18.558;2023-02-14T08:08:29;102826.97;;;4.58;79.54
68807;BME280;55800;54.272;18.558;2023-02-14T08:10:59;102821.69;;;4.59;79.51
68807;BME280;55800;54.272;18.558;2023-02-14T08:13:30;102821.78;;;4.65;79.31
68807;BME280;55800;54.272;18.558;2023-02-14T08:16:00;102826.25;;;4.66;79.21
68807;BME280;55800;54.272;18.558;2023-02-14T08:18:35;102843.09;;;4.71;79.11
68807;BME280;55800;54.272;18.558;2023-02-14T08:21:07;102832.47;;;4.70;79.08
68807;BME280;55800;54.272;18.558;2023-02-14T08:23:37;102829.00;;;4.72;78.95
68807;BME280;55800;54.272;18.558;2023-02-14T08:26:07;102833.41;;;4.73;79.01
68807;BME280;55800;54.272;18.558;2023-02-14T08:28:37;102851.13;;;4.78;79.04
68807;BME280;55800;54.272;18.558;2023-02-14T08:31:07;102843.28;;;4.82;79.02
68807;BME280;55800;54.272;18.558;2023-02-14T08:33:36;102839.78;;;4.83;78.92
68807;BME280;55800;54.272;18.558;2023-02-14T08:36:06;102843.34;;;4.87;78.87
68807;BME280;55800;54.272;18.558;2023-02-14T08:38:35;102846.91;;;4.87;78.96
68807;BME280;55800;54.272;18.558;2023-02-14T08:41:04;102854.03;;;4.90;78.86
68807;BME280;55800;54.272;18.558;2023-02-14T08:43:37;102858.50;;;4.94;78.75
68807;BME280;55800;54.272;18.558;2023-02-14T08:46:07;102855.03;;;4.96;78.49
68807;BME280;55800;54.272;18.558;2023-02-14T08:48:36;102845.34;;;5.00;78.54
68807;BME280;55800;54.272;18.558;2023-02-14T08:51:07;102852.41;;;5.01;78.56
68807;BME280;55800;54.272;18.558;2023-02-14T08:53:36;102857.69;;;4.99;78.57
68807;BME280;55800;54.272;18.558;2023-02-14T08:56:08;102840.97;;;5.02;78.55
68807;BME280;55800;54.272;18.558;2023-02-14T08:58:39;102839.22;;;5.04;78.46
68807;BME280;55800;54.272;18.558;2023-02-14T09:01:10;102842.84;;;5.09;78.54
68807;BME280;55800;54.272;18.558;2023-02-14T09:03:40;102848.19;;;5.12;78.20
68807;BME280;55800;54.272;18.558;2023-02-14T09:06:11;102845.53;;;5.13;78.24
68807;BME280;55800;54.272;18.558;2023-02-14T09:08:44;102842.09;;;5.17;78.20
68807;BME280;55800;54.272;18.558;2023-02-14T09:11:16;102845.66;;;5.19;78.11
68807;BME280;55800;54.272;18.558;2023-02-14T09:13:48;102845.72;;;5.24;77.96
68807;BME280;55800;54.272;18.558;2023-02-14T09:16:19;102839.63;;;5.28;78.17
68807;BME280;55800;54.272;18.558;2023-02-14T09:18:50;102831.75;;;5.34;78.26
68807;BME280;55800;54.272;18.558;2023-02-14T09:21:21;102826.53;;;5.41;78.14
68807;BME280;55800;54.272;18.558;2023-02-14T09:23:51;102827.50;;;5.48;77.85
68807;BME280;55800;54.272;18.558;2023-02-14T09:26:21;102839.94;;;5.49;77.88
68807;BME280;55800;54.272;18.558;2023-02-14T09:28:52;102846.16;;;5.54;77.87
68807;BME280;55800;54.272;18.558;2023-02-14T09:31:23;102836.53;;;5.61;77.73
68807;BME280;55800;54.272;18.558;2023-02-14T09:33:53;102841.97;;;5.68;77.59
68807;BME280;55800;54.272;18.558;2023-02-14T09:36:23;102844.63;;;5.71;77.30
68807;BME280;55800;54.272;18.558;2023-02-14T09:38:52;102842.91;;;5.75;77.14
68807;BME280;55800;54.272;18.558;2023-02-14T09:41:31;102836.75;;;5.77;76.98
68807;BME280;55800;54.272;18.558;2023-02-14T09:44:10;102846.50;;;5.78;77.16
68807;BME280;55800;54.272;18.558;2023-02-14T09:46:45;102847.41;;;5.80;77.08
68807;BME280;55800;54.272;18.558;2023-02-14T09:49:23;102852.84;;;5.86;77.05
68807;BME280;55800;54.272;18.558;2023-02-14T09:51:57;102853.81;;;5.91;76.63
68807;BME280;55800;54.272;18.558;2023-02-14T09:54:29;102856.47;;;5.94;76.94
68807;BME280;55800;54.272;18.558;2023-02-14T09:57:05;102847.69;;;5.98;76.76
68807;BME280;55800;54.272;18.558;2023-02-14T09:59:43;102863.66;;;6.01;76.38
68807;BME280;55800;54.272;18.558;2023-02-14T10:02:37;102863.69;;;6.04;76.36
68807;BME280;55800;54.272;18.558;2023-02-14T10:05:11;102853.13;;;6.09;76.06
68807;BME280;55800;54.272;18.558;2023-02-14T10:07:56;102856.66;;;6.09;75.92
68807;BME280;55800;54.272;18.558;2023-02-14T10:10:29;102867.34;;;6.12;75.97
68807;BME280;55800;54.272;18.558;2023-02-14T10:13:05;102873.63;;;6.19;76.20
68807;BME280;55800;54.272;18.558;2023-02-14T10:15:40;102862.16;;;6.24;75.82
68807;BME280;55800;54.272;18.558;2023-02-14T10:18:15;102873.75;;;6.31;75.44
68807;BME280;55800;54.272;18.558;2023-02-14T10:20:50;102865.78;;;6.32;75.55
68807;BME280;55800;54.272;18.558;2023-02-14T10:23:28;102863.25;;;6.40;75.56
68807;BME280;55800;54.272;18.558;2023-02-14T10:26:00;102861.53;;;6.47;75.41
68807;BME280;55800;54.272;18.558;2023-02-14T10:28:33;102856.25;;;6.50;75.51
68807;BME280;55800;54.272;18.558;2023-02-14T10:31:16;102859.00;;;6.59;75.29
68807;BME280;55800;54.272;18.558;2023-02-14T10:33:53;102858.16;;;6.64;75.11
68807;BME280;55800;54.272;18.558;2023-02-14T10:36:46;102862.69;;;6.73;74.56
68807;BME280;55800;54.272;18.558;2023-02-14T10:39:29;102854.69;;;6.73;74.81
68807;BME280;55800;54.272;18.558;2023-02-14T10:42:09;102855.66;;;6.78;75.07
68807;BME280;55800;54.272;18.558;2023-02-14T10:44:46;102851.25;;;6.83;74.49
68807;BME280;55800;54.272;18.558;2023-02-14T10:47:28;102859.25;;;6.84;74.04
68807;BME280;55800;54.272;18.558;2023-02-14T10:50:10;102860.16;;;6.86;74.60
68807;BME280;55800;54.272;18.558;2023-02-14T10:52:48;102867.28;;;6.93;74.29
68807;BME280;55800;54.272;18.558;2023-02-14T10:55:23;102864.66;;;6.95;74.13
68807;BME280;55800;54.272;18.558;2023-02-14T10:58:01;102862.91;;;6.97;73.84
68807;BME280;55800;54.272;18.558;2023-02-14T11:00:33;102859.38;;;6.99;74.03
68807;BME280;55800;54.272;18.558;2023-02-14T11:03:07;102863.00;;;7.06;74.30
68807;BME280;55800;54.272;18.558;2023-02-14T11:05:41;102859.44;;;7.07;73.43
68807;BME280;55800;54.272;18.558;2023-02-14T11:08:15;102855.91;;;7.08;73.61
68807;BME280;55800;54.272;18.558;2023-02-14T11:10:46;102856.81;;;7.12;73.27
68807;BME280;55800;54.272;18.558;2023-02-14T11:13:36;102856.81;;;7.12;73.58
68807;BME280;55800;54.272;18.558;2023-02-14T11:16:08;102856.84;;;7.15;73.61
68807;BME280;55800;54.272;18.558;2023-02-14T11:18:40;102869.31;;;7.19;73.21
68807;BME280;55800;54.272;18.558;2023-02-14T11:21:12;102855.97;;;7.17;73.09
68807;BME280;55800;54.272;18.558;2023-02-14T11:23:43;102863.97;;;7.22;73.29
68807;BME280;55800;54.272;18.558;2023-02-14T11:26:21;102853.34;;;7.23;72.75
68807;BME280;55800;54.272;18.558;2023-02-14T11:28:54;102848.97;;;7.25;72.76
68807;BME280;55800;54.272;18.558;2023-02-14T11:31:27;102837.41;;;7.28;72.82
68807;BME280;55800;54.272;18.558;2023-02-14T11:34:00;102836.56;;;7.32;72.77
68807;BME280;55800;54.272;18.558;2023-02-14T11:36:39;102829.50;;;7.35;73.04
68807;BME280;55800;54.272;18.558;2023-02-14T11:39:24;102825.97;;;7.39;73.33
68807;BME280;55800;54.272;18.558;2023-02-14T11:41:58;102831.34;;;7.45;72.85
68807;BME280;55800;54.272;18.558;2023-02-14T11:44:29;102839.34;;;7.51;73.24
68807;BME280;55800;54.272;18.558;2023-02-14T11:47:15;102825.19;;;7.58;73.06
68807;BME280;55800;54.272;18.558;2023-02-14T11:49:56;102833.19;;;7.61;72.50
68807;BME280;55800;54.272;18.558;2023-02-14T11:52:28;102833.19;;;7.61;72.60
68807;BME280;55800;54.272;18.558;2023-02-14T11:54:58;102827.91;;;7.64;72.73
68807;BME280;55800;54.272;18.558;2023-02-14T11:57:33;102826.13;;;7.66;72.42
68807;BME280;55800;54.272;18.558;2023-02-14T12:00:14;102836.81;;;7.69;72.57
68807;BME280;55800;54.272;18.558;2023-02-14T12:02:45;102836.81;;;7.72;72.52
68807;BME280;55800;54.272;18.558;2023-02-14T12:05:20;102826.19;;;7.75;73.08
68807;BME280;55800;54.272;18.558;2023-02-14T12:07:53;102827.94;;;7.76;72.26
68807;BME280;55800;54.272;18.558;2023-02-14T12:10:26;102826.19;;;7.78;72.14
68807;BME280;55800;54.272;18.558;2023-02-14T12:12:59;102827.06;;;7.79;72.34
68807;BME280;55800;54.272;18.558;2023-02-14T12:15:32;102825.28;;;7.76;71.75
68807;BME280;55800;54.272;18.558;2023-02-14T12:21:34;102817.31;;;7.81;72.12
68807;BME280;55800;54.272;18.558;2023-02-14T12:24:22;102817.31;;;7.82;72.37
68807;BME280;55800;54.272;18.558;2023-02-14T12:27:00;102824.44;;;7.83;72.16
68807;BME280;55800;54.272;18.558;2023-02-14T12:29:35;102822.66;;;7.85;72.47
68807;BME280;55800;54.272;18.558;2023-02-14T12:32:17;102824.44;;;7.83;72.19
68807;BME280;55800;54.272;18.558;2023-02-14T12:34:49;102824.44;;;7.85;72.13
68807;BME280;55800;54.272;18.558;2023-02-14T12:37:35;102837.78;;;7.86;71.63
68807;BME280;55800;54.272;18.558;2023-02-14T12:40:15;102827.09;;;7.83;71.93
68807;BME280;55800;54.272;18.558;2023-02-14T12:42:53;102829.78;;;7.86;71.76
68807;BME280;55800;54.272;18.558;2023-02-14T12:45:43;102820.91;;;7.84;71.73
68807;BME280;55800;54.272;18.558;2023-02-14T12:48:24;102820.84;;;7.75;71.29
68807;BME280;55800;54.272;18.558;2023-02-14T12:51:00;102826.19;;;7.75;71.74
68807;BME280;55800;54.272;18.558;2023-02-14T12:53:46;102813.72;;;7.68;71.52
68807;BME280;55800;54.272;18.558;2023-02-14T12:56:29;102815.47;;;7.66;71.55
68807;BME280;55800;54.272;18.558;2023-02-14T12:59:07;102816.38;;;7.65;71.63
68807;BME280;55800;54.272;18.558;2023-02-14T13:04:53;102821.66;;;7.55;71.18
68807;BME280;55800;54.272;18.558;2023-02-14T13:07:58;102818.09;;;7.54;71.07
68807;BME280;55800;54.272;18.558;2023-02-14T13:10:43;102820.72;;;7.51;71.59
68807;BME280;55800;54.272;18.558;2023-02-14T13:13:22;102814.47;;;7.45;71.21
68807;BME280;55800;54.272;18.558;2023-02-14T13:16:02;102811.81;;;7.42;71.47
68807;BME280;55800;54.272;18.558;2023-02-14T13:18:42;102816.19;;;7.38;71.49
68807;BME280;55800;54.272;18.558;2023-02-14T13:21:18;102811.81;;;7.43;71.98
68807;BME280;55800;54.272;18.558;2023-02-14T13:23:55;102807.34;;;7.39;71.49
68807;BME280;55800;54.272;18.558;2023-02-14T13:26:30;102812.63;;;7.36;71.53
68807;BME280;55800;54.272;18.558;2023-02-14T13:29:05;102809.97;;;7.36;71.73
68807;BME280;55800;54.272;18.558;2023-02-14T13:31:35;102802.00;;;7.35;71.59
68807;BME280;55800;54.272;18.558;2023-02-14T13:34:12;102797.56;;;7.38;71.90
68807;BME280;55800;54.272;18.558;2023-02-14T13:36:48;102797.56;;;7.38;71.53